createdAt,value
2017-12-06T00:00:14.551Z,12.52
2017-12-06T00:01:20.571Z,12.55
2017-12-06T00:02:27.117Z,14.02
2017-12-06T00:03:34.488Z,13.27
2017-12-06T00:04:38.785Z,13.30
2017-12-06T00:05:44.555Z,13.55
2017-12-06T00:06:54.157Z,12.40
2017-12-06T00:08:11.877Z,13.00
2017-12-06T00:09:19.945Z,12.93
2017-12-06T00:10:26.926Z,13.13
2017-12-06T00:11:33.820Z,13.00
2017-12-06T00:12:43.633Z,13.15
2017-12-06T00:14:00.460Z,13.30
2017-12-06T00:16:28.469Z,12.52
2017-12-06T00:17:38.309Z,11.70
2017-12-06T00:18:44.289Z,13.02
2017-12-06T00:19:51.424Z,12.32
2017-12-06T00:20:56.992Z,13.40
2017-12-06T00:22:03.146Z,12.70
2017-12-06T00:23:11.947Z,11.23
2017-12-06T00:24:18.655Z,12.55
2017-12-06T00:25:29.501Z,12.50
2017-12-06T00:26:37.513Z,11.77
2017-12-06T00:27:43.523Z,13.70
2017-12-06T00:28:49.562Z,12.75
2017-12-06T00:29:56.040Z,12.43
2017-12-06T00:31:05.380Z,13.38
2017-12-06T00:32:09.623Z,11.88
2017-12-06T00:33:14.990Z,12.07
2017-12-06T00:34:25.488Z,13.55
2017-12-06T00:35:44.106Z,11.95
2017-12-06T00:36:49.438Z,12.25
2017-12-06T00:37:59.354Z,13.13
2017-12-06T00:39:02.790Z,13.50
2017-12-06T00:40:14.226Z,13.15
2017-12-06T00:41:18.138Z,13.68
2017-12-06T00:42:21.499Z,12.90
2017-12-06T00:43:30.224Z,12.10
2017-12-06T00:44:40.501Z,11.30
2017-12-06T00:45:50.034Z,11.48
2017-12-06T00:46:56.151Z,13.13
2017-12-06T00:48:07.630Z,12.15
2017-12-06T00:49:14.348Z,12.43
2017-12-06T00:50:18.922Z,12.35
2017-12-06T00:51:25.956Z,12.37
2017-12-06T00:52:35.337Z,12.07
2017-12-06T00:53:41.558Z,11.38
2017-12-06T00:54:50.054Z,12.13
2017-12-06T00:55:54.218Z,12.10
2017-12-06T00:56:58.964Z,12.60
2017-12-06T00:58:06.150Z,11.95
2017-12-06T00:59:10.796Z,11.02
2017-12-06T01:00:17.242Z,11.77
2017-12-06T01:01:23.267Z,12.45
2017-12-06T01:02:27.593Z,11.52
2017-12-06T01:03:35.826Z,12.00
2017-12-06T01:04:41.821Z,11.10
2017-12-06T01:05:46.672Z,12.25
2017-12-06T01:06:59.874Z,12.25
2017-12-06T01:08:06.009Z,12.20
2017-12-06T01:09:15.184Z,12.40
2017-12-06T01:10:25.751Z,11.63
2017-12-06T01:12:49.155Z,12.05
2017-12-06T01:13:54.890Z,12.88
2017-12-06T01:15:06.300Z,11.88
2017-12-06T01:16:10.988Z,12.68
2017-12-06T01:17:18.236Z,13.13
2017-12-06T01:18:24.008Z,12.95
2017-12-06T01:19:31.391Z,12.57
2017-12-06T01:20:39.173Z,12.88
2017-12-06T01:21:43.627Z,13.32
2017-12-06T01:22:54.398Z,14.13
2017-12-06T01:24:00.174Z,13.00
2017-12-06T01:25:06.995Z,13.38
2017-12-06T01:26:12.172Z,12.15
2017-12-06T01:27:15.853Z,12.40
2017-12-06T01:28:20.184Z,12.32
2017-12-06T01:29:27.468Z,13.57
2017-12-06T01:30:34.114Z,12.65
2017-12-06T01:31:40.572Z,13.68
2017-12-06T01:32:45.988Z,12.40
2017-12-06T01:33:53.563Z,14.02
2017-12-06T01:35:01.186Z,11.73
2017-12-06T01:36:05.196Z,11.68
2017-12-06T01:37:14.306Z,13.32
2017-12-06T01:38:19.670Z,14.57
2017-12-06T01:39:26.207Z,13.10
2017-12-06T01:40:31.294Z,13.13
2017-12-06T01:41:37.390Z,13.77
2017-12-06T01:42:40.858Z,12.65
2017-12-06T01:43:43.999Z,13.40
2017-12-06T01:44:52.949Z,13.65
2017-12-06T01:47:10.696Z,13.27
2017-12-06T01:48:18.381Z,13.45
2017-12-06T01:49:25.732Z,13.50
2017-12-06T01:50:31.287Z,13.80
2017-12-06T01:51:38.560Z,14.63
2017-12-06T01:52:43.053Z,13.10
2017-12-06T01:53:53.388Z,13.95
2017-12-06T01:55:03.803Z,12.90
2017-12-06T01:56:09.987Z,14.68
2017-12-06T01:57:20.126Z,13.27
2017-12-06T01:58:25.038Z,13.25
2017-12-06T01:59:31.594Z,13.27
2017-12-06T02:00:37.254Z,13.73
2017-12-06T02:01:42.180Z,13.10
2017-12-06T02:02:46.992Z,13.62
2017-12-06T02:03:55.430Z,13.45
2017-12-06T02:04:59.036Z,12.35
2017-12-06T02:06:04.910Z,12.80
2017-12-06T02:07:15.367Z,13.15
2017-12-06T02:08:26.030Z,11.82
2017-12-06T02:09:30.462Z,12.52
2017-12-06T02:10:37.545Z,13.73
2017-12-06T02:11:44.766Z,12.80
2017-12-06T02:12:51.606Z,14.00
2017-12-06T02:13:58.189Z,13.62
2017-12-06T02:15:02.192Z,13.98
2017-12-06T02:16:09.020Z,13.00
2017-12-06T02:17:14.149Z,13.82
2017-12-06T02:18:26.122Z,13.60
2017-12-06T02:19:36.976Z,13.20
2017-12-06T02:20:44.899Z,13.82
2017-12-06T02:21:54.564Z,14.30
2017-12-06T02:22:59.875Z,14.10
2017-12-06T02:24:07.864Z,14.48
2017-12-06T02:25:12.439Z,14.23
2017-12-06T02:26:23.799Z,15.75
2017-12-06T02:27:35.247Z,13.93
2017-12-06T02:28:41.085Z,15.20
2017-12-06T02:29:45.766Z,14.45
2017-12-06T02:30:51.653Z,14.98
2017-12-06T02:31:58.376Z,15.05
2017-12-06T02:34:20.896Z,15.82
2017-12-06T02:35:26.313Z,16.17
2017-12-06T02:36:30.649Z,14.50
2017-12-06T02:37:36.138Z,15.20
2017-12-06T02:38:42.125Z,17.62
2017-12-06T02:40:02.950Z,16.15
2017-12-06T02:41:18.930Z,15.25
2017-12-06T02:42:33.620Z,16.23
2017-12-06T02:43:52.618Z,17.15
2017-12-06T02:45:08.561Z,15.25
2017-12-06T02:46:13.229Z,16.30
2017-12-06T02:47:19.876Z,17.60
2017-12-06T02:48:24.539Z,18.55
2017-12-06T02:49:30.180Z,17.52
2017-12-06T02:50:36.505Z,16.70
2017-12-06T02:51:42.978Z,17.30
2017-12-06T02:52:47.293Z,17.48
2017-12-06T02:53:57.499Z,17.75
2017-12-06T02:56:16.690Z,17.80
2017-12-06T02:57:22.019Z,17.10
2017-12-06T02:58:27.356Z,19.35
2017-12-06T02:59:36.646Z,18.17
2017-12-06T03:00:44.062Z,18.92
2017-12-06T03:01:52.525Z,19.52
2017-12-06T03:02:59.457Z,18.40
2017-12-06T03:04:02.086Z,16.98
2017-12-06T03:05:08.515Z,18.08
2017-12-06T03:06:16.045Z,18.73
2017-12-06T03:08:40.574Z,17.90
2017-12-06T03:09:51.179Z,17.55
2017-12-06T03:10:57.105Z,17.08
2017-12-06T03:12:04.390Z,17.08
2017-12-06T03:13:08.721Z,17.77
2017-12-06T03:14:15.776Z,17.62
2017-12-06T03:15:25.334Z,16.70
2017-12-06T03:16:33.511Z,18.12
2017-12-06T03:17:38.152Z,18.95
2017-12-06T03:18:45.412Z,17.70
2017-12-06T03:19:50.468Z,18.25
2017-12-06T03:22:09.096Z,18.42
2017-12-06T03:23:15.757Z,17.60
2017-12-06T03:24:23.484Z,18.48
2017-12-06T03:25:32.377Z,21.02
2017-12-06T03:26:36.882Z,19.75
2017-12-06T03:27:47.528Z,18.00
2017-12-06T03:28:56.151Z,18.55
2017-12-06T03:30:00.410Z,18.73
2017-12-06T03:31:03.720Z,18.75
2017-12-06T03:32:10.058Z,19.58
2017-12-06T03:33:15.606Z,18.83
2017-12-06T03:34:23.702Z,18.87
2017-12-06T03:35:28.558Z,18.35
2017-12-06T03:36:34.220Z,20.73
2017-12-06T03:37:39.661Z,19.27
2017-12-06T03:38:50.996Z,19.33
2017-12-06T03:39:59.116Z,20.50
2017-12-06T03:41:03.474Z,18.27
2017-12-06T03:42:11.990Z,17.87
2017-12-06T03:43:19.720Z,19.23
2017-12-06T03:44:29.608Z,19.42
2017-12-06T03:45:34.363Z,17.67
2017-12-06T03:46:44.565Z,19.00
2017-12-06T03:47:48.519Z,17.60
2017-12-06T03:48:53.548Z,18.50
2017-12-06T03:50:01.549Z,18.65
2017-12-06T03:51:10.710Z,18.62
2017-12-06T03:52:16.387Z,17.85
2017-12-06T03:53:25.486Z,17.70
2017-12-06T03:54:32.764Z,17.80
2017-12-06T03:55:37.660Z,17.12
2017-12-06T03:56:41.364Z,18.30
2017-12-06T03:57:44.847Z,18.58
2017-12-06T03:58:50.828Z,17.85
2017-12-06T03:59:54.310Z,18.45
2017-12-06T04:00:59.778Z,19.83
2017-12-06T04:02:03.825Z,19.35
2017-12-06T04:03:06.367Z,18.58
2017-12-06T04:04:15.511Z,19.33
2017-12-06T04:05:20.996Z,18.45
2017-12-06T04:07:43.773Z,19.35
2017-12-06T04:08:51.432Z,18.70
2017-12-06T04:09:57.456Z,17.67
2017-12-06T04:11:09.186Z,18.62
2017-12-06T04:12:14.546Z,19.58
2017-12-06T04:13:19.187Z,17.65
2017-12-06T04:14:29.665Z,18.62
2017-12-06T04:15:40.521Z,17.12
2017-12-06T04:18:09.679Z,18.40
2017-12-06T04:19:15.971Z,17.92
2017-12-06T04:20:24.044Z,18.73
2017-12-06T04:21:32.262Z,17.85
2017-12-06T04:22:41.337Z,18.37
2017-12-06T04:23:44.531Z,17.25
2017-12-06T04:24:51.495Z,18.35
2017-12-06T04:26:02.394Z,17.33
2017-12-06T04:27:11.222Z,18.15
2017-12-06T04:28:20.826Z,16.75
2017-12-06T04:29:36.801Z,17.95
2017-12-06T04:30:44.137Z,17.95
2017-12-06T04:31:50.266Z,17.92
2017-12-06T04:32:58.995Z,16.55
2017-12-06T04:34:03.424Z,18.95
2017-12-06T04:35:08.336Z,17.95
2017-12-06T04:36:15.020Z,16.23
2017-12-06T04:37:22.082Z,17.25
2017-12-06T04:38:33.615Z,16.73
2017-12-06T04:39:38.984Z,16.30
2017-12-06T04:40:43.341Z,16.40
2017-12-06T04:41:46.755Z,16.98
2017-12-06T04:43:01.217Z,18.40
2017-12-06T04:44:04.580Z,18.35
2017-12-06T04:45:09.523Z,16.15
2017-12-06T04:46:13.602Z,17.02
2017-12-06T04:47:20.691Z,18.25
2017-12-06T04:48:28.679Z,17.67
2017-12-06T04:49:33.423Z,17.75
2017-12-06T04:52:00.225Z,17.30
2017-12-06T04:53:12.085Z,17.67
2017-12-06T04:54:18.108Z,16.67
2017-12-06T04:55:21.244Z,16.20
2017-12-06T04:56:28.991Z,16.55
2017-12-06T04:57:35.505Z,16.40
2017-12-06T04:58:45.261Z,16.65
2017-12-06T04:59:52.211Z,17.33
2017-12-06T05:00:56.780Z,15.13
2017-12-06T05:02:03.080Z,16.20
2017-12-06T05:03:08.068Z,18.40
2017-12-06T05:04:14.434Z,16.73
2017-12-06T05:05:22.659Z,15.73
2017-12-06T05:06:29.231Z,17.45
2017-12-06T05:07:35.003Z,16.30
2017-12-06T05:08:46.938Z,16.27
2017-12-06T05:09:56.868Z,18.23
2017-12-06T05:11:03.664Z,15.63
2017-12-06T05:12:09.813Z,17.33
2017-12-06T05:13:13.016Z,18.60
2017-12-06T05:14:23.177Z,17.83
2017-12-06T05:15:25.845Z,17.10
2017-12-06T05:16:33.537Z,17.05
2017-12-06T05:17:37.981Z,17.77
2017-12-06T05:18:42.115Z,18.10
2017-12-06T05:19:52.089Z,16.87
2017-12-06T05:21:00.494Z,15.73
2017-12-06T05:23:19.692Z,18.50
2017-12-06T05:24:34.726Z,17.70
2017-12-06T05:25:50.822Z,17.45
2017-12-06T05:26:58.589Z,18.15
2017-12-06T05:28:09.291Z,17.05
2017-12-06T05:29:18.275Z,17.08
2017-12-06T05:30:23.921Z,17.58
2017-12-06T05:31:28.740Z,19.37
2017-12-06T05:32:36.486Z,18.95
2017-12-06T05:33:42.093Z,17.58
2017-12-06T05:34:45.557Z,17.33
2017-12-06T05:35:52.153Z,17.87
2017-12-06T05:36:57.014Z,17.85
2017-12-06T05:38:04.871Z,18.42
2017-12-06T05:39:15.178Z,18.60
2017-12-06T05:40:20.070Z,17.23
2017-12-06T05:41:26.963Z,18.17
2017-12-06T05:42:41.343Z,17.92
2017-12-06T05:43:47.957Z,18.60
2017-12-06T05:44:52.653Z,19.77
2017-12-06T05:46:02.519Z,16.92
2017-12-06T05:47:08.521Z,18.02
2017-12-06T05:48:13.752Z,18.45
2017-12-06T05:49:19.581Z,18.80
2017-12-06T05:50:24.409Z,19.48
2017-12-06T05:51:28.659Z,18.10
2017-12-06T05:52:38.226Z,18.20
2017-12-06T05:53:46.331Z,17.48
2017-12-06T05:54:52.254Z,18.25
2017-12-06T05:56:04.185Z,17.08
2017-12-06T05:57:08.448Z,18.83
2017-12-06T05:58:12.310Z,18.70
2017-12-06T05:59:17.337Z,17.95
2017-12-06T06:00:27.091Z,18.10
2017-12-06T06:01:36.844Z,17.50
2017-12-06T06:02:46.376Z,18.33
2017-12-06T06:03:51.016Z,19.00
2017-12-06T06:04:54.889Z,16.50
2017-12-06T06:06:01.588Z,17.87
2017-12-06T06:07:07.633Z,16.45
2017-12-06T06:08:13.162Z,17.77
2017-12-06T06:09:27.638Z,18.20
2017-12-06T06:10:31.160Z,18.02
2017-12-06T06:11:35.551Z,17.23
2017-12-06T06:12:46.309Z,18.15
2017-12-06T06:13:52.650Z,17.35
2017-12-06T06:14:59.199Z,18.55
2017-12-06T06:16:04.332Z,16.62
2017-12-06T06:17:18.500Z,16.67
2017-12-06T06:18:24.544Z,17.45
2017-12-06T06:19:33.704Z,17.92
2017-12-06T06:20:38.886Z,16.90
2017-12-06T06:21:44.791Z,17.30
2017-12-06T06:22:54.473Z,16.33
2017-12-06T06:24:01.928Z,17.37
2017-12-06T06:25:12.553Z,17.20
2017-12-06T06:26:16.801Z,17.12
2017-12-06T06:27:20.418Z,16.40
2017-12-06T06:29:34.678Z,17.40
2017-12-06T06:30:41.984Z,16.50
2017-12-06T06:31:56.934Z,16.73
2017-12-06T06:33:07.836Z,18.50
2017-12-06T06:34:15.630Z,15.65
2017-12-06T06:35:28.634Z,17.27
2017-12-06T06:36:35.684Z,16.20
2017-12-06T06:37:39.121Z,15.82
2017-12-06T06:38:51.013Z,17.00
2017-12-06T06:39:55.784Z,17.25
2017-12-06T06:41:01.860Z,15.50
2017-12-06T06:42:10.679Z,15.50
2017-12-06T06:43:18.583Z,15.90
2017-12-06T06:44:21.547Z,16.83
2017-12-06T06:45:25.326Z,16.98
2017-12-06T06:46:32.448Z,17.58
2017-12-06T06:47:41.425Z,16.45
2017-12-06T06:48:46.261Z,15.75
2017-12-06T06:49:53.182Z,16.75
2017-12-06T06:51:05.224Z,17.62
2017-12-06T06:52:11.325Z,16.15
2017-12-06T06:53:24.060Z,16.75
2017-12-06T06:54:35.341Z,16.35
2017-12-06T06:55:41.505Z,15.20
2017-12-06T06:57:58.410Z,16.37
2017-12-06T06:59:05.638Z,16.75
2017-12-06T07:00:09.891Z,16.30
2017-12-06T07:01:15.239Z,15.95
2017-12-06T07:02:20.621Z,16.75
2017-12-06T07:03:28.233Z,15.85
2017-12-06T07:04:33.559Z,16.90
2017-12-06T07:05:37.975Z,15.45
2017-12-06T07:06:46.161Z,15.43
2017-12-06T07:07:49.984Z,15.45
2017-12-06T07:08:56.776Z,16.00
2017-12-06T07:10:00.654Z,14.77
2017-12-06T07:11:05.504Z,14.40
2017-12-06T07:12:18.050Z,15.40
2017-12-06T07:14:42.504Z,16.60
2017-12-06T07:15:45.743Z,14.27
2017-12-06T07:18:05.882Z,16.08
2017-12-06T07:19:12.223Z,16.15
2017-12-06T07:20:22.424Z,13.80
2017-12-06T07:21:27.565Z,15.80
2017-12-06T07:23:48.658Z,15.35
2017-12-06T07:25:03.328Z,14.35
2017-12-06T07:26:09.688Z,14.77
2017-12-06T07:27:14.268Z,15.00
2017-12-06T07:28:21.210Z,13.90
2017-12-06T07:29:30.395Z,14.50
2017-12-06T07:30:36.260Z,14.70
2017-12-06T07:31:44.923Z,14.82
2017-12-06T07:32:52.610Z,14.38
2017-12-06T07:33:58.927Z,14.25
2017-12-06T07:35:06.561Z,14.50
2017-12-06T07:36:12.665Z,15.27
2017-12-06T07:37:27.689Z,15.93
2017-12-06T07:38:37.389Z,14.73
2017-12-06T07:39:41.181Z,13.95
2017-12-06T07:40:48.858Z,13.30
2017-12-06T07:41:54.086Z,13.43
2017-12-06T07:43:03.058Z,12.65
2017-12-06T07:44:15.388Z,12.70
2017-12-06T07:46:37.581Z,14.95
2017-12-06T07:47:44.693Z,14.80
2017-12-06T07:48:49.362Z,13.90
2017-12-06T07:49:57.058Z,13.13
2017-12-06T07:51:05.808Z,14.23
2017-12-06T07:52:10.125Z,14.60
2017-12-06T07:53:13.765Z,13.35
2017-12-06T07:55:29.697Z,13.70
2017-12-06T07:56:35.880Z,13.05
2017-12-06T07:57:41.982Z,13.75
2017-12-06T07:58:48.435Z,14.02
2017-12-06T07:59:58.432Z,13.30
2017-12-06T08:01:15.396Z,13.27
2017-12-06T08:02:22.934Z,13.65
2017-12-06T08:03:30.163Z,13.05
2017-12-06T08:04:39.634Z,14.00
2017-12-06T08:05:57.799Z,14.80
2017-12-06T08:07:02.340Z,13.90
2017-12-06T08:08:21.435Z,12.73
2017-12-06T08:09:27.875Z,13.90
2017-12-06T08:10:40.590Z,13.48
2017-12-06T08:11:47.821Z,13.45
2017-12-06T08:12:56.326Z,13.48
2017-12-06T08:15:13.412Z,13.62
2017-12-06T08:16:23.872Z,13.82
2017-12-06T08:17:28.023Z,13.07
2017-12-06T08:18:37.238Z,13.60
2017-12-06T08:19:42.515Z,13.93
2017-12-06T08:20:46.295Z,12.00
2017-12-06T08:21:57.558Z,11.80
2017-12-06T08:23:06.151Z,12.65
2017-12-06T08:24:11.659Z,13.30
2017-12-06T08:25:16.441Z,12.57
2017-12-06T08:26:27.806Z,11.77
2017-12-06T08:27:35.179Z,12.18
2017-12-06T08:28:38.869Z,12.60
2017-12-06T08:29:46.057Z,11.82
2017-12-06T08:30:55.759Z,12.15
2017-12-06T08:32:03.956Z,12.23
2017-12-06T08:33:08.278Z,12.48
2017-12-06T08:34:14.293Z,11.90
2017-12-06T08:35:22.507Z,12.75
2017-12-06T08:36:26.982Z,12.15
2017-12-06T08:37:35.362Z,11.77
2017-12-06T08:39:53.056Z,11.00
2017-12-06T08:40:57.480Z,11.38
2017-12-06T08:42:00.916Z,11.15
2017-12-06T08:43:08.943Z,11.27
2017-12-06T08:44:17.174Z,12.20
2017-12-06T08:45:23.508Z,11.88
2017-12-06T08:46:34.932Z,10.95
2017-12-06T08:47:43.109Z,11.20
2017-12-06T08:48:47.964Z,10.20
2017-12-06T08:49:54.875Z,11.07
2017-12-06T08:51:04.248Z,10.82
2017-12-06T08:52:07.565Z,11.63
2017-12-06T08:53:24.435Z,10.40
2017-12-06T08:54:28.870Z,11.55
2017-12-06T08:55:34.503Z,11.68
2017-12-06T08:56:40.651Z,11.02
2017-12-06T08:57:46.911Z,11.52
2017-12-06T08:58:53.374Z,10.80
2017-12-06T09:00:02.911Z,11.80
2017-12-06T09:01:09.346Z,11.65
2017-12-06T09:02:33.005Z,10.82
2017-12-06T09:03:44.499Z,11.12
2017-12-06T09:04:51.397Z,10.75
2017-12-06T09:06:03.462Z,12.63
2017-12-06T09:07:08.609Z,12.88
2017-12-06T09:08:12.303Z,10.90
2017-12-06T09:09:21.233Z,10.30
2017-12-06T09:10:42.872Z,11.15
2017-12-06T09:11:58.367Z,10.88
2017-12-06T09:13:08.535Z,10.88
2017-12-06T09:14:16.520Z,10.40
2017-12-06T09:15:22.079Z,9.23
2017-12-06T09:16:26.786Z,11.88
2017-12-06T09:17:31.361Z,11.25
2017-12-06T09:18:46.050Z,11.20
2017-12-06T09:19:53.034Z,11.15
2017-12-06T09:21:03.631Z,11.73
2017-12-06T09:22:09.065Z,11.40
2017-12-06T09:23:14.869Z,10.52
2017-12-06T09:24:19.514Z,10.15
2017-12-06T09:26:38.333Z,10.75
2017-12-06T09:27:44.584Z,9.52
2017-12-06T09:28:50.459Z,11.02
2017-12-06T09:30:08.370Z,10.38
2017-12-06T09:31:17.301Z,11.05
2017-12-06T09:32:23.642Z,10.80
2017-12-06T09:33:29.370Z,9.75
2017-12-06T09:34:31.912Z,10.13
2017-12-06T09:35:45.036Z,9.85
2017-12-06T09:36:51.118Z,9.88
2017-12-06T09:38:00.463Z,9.38
2017-12-06T09:39:11.182Z,10.05
2017-12-06T09:40:16.421Z,9.55
2017-12-06T09:41:24.195Z,10.15
2017-12-06T09:42:35.031Z,9.68
2017-12-06T09:43:41.797Z,9.60
2017-12-06T09:44:46.334Z,9.07
2017-12-06T09:46:00.336Z,10.70
2017-12-06T09:47:06.435Z,10.55
2017-12-06T09:48:16.683Z,9.52
2017-12-06T09:49:21.511Z,10.95
2017-12-06T09:50:24.294Z,9.73
2017-12-06T09:51:31.000Z,9.45
2017-12-06T09:52:40.784Z,9.88
2017-12-06T09:53:48.365Z,9.48
2017-12-06T09:56:08.932Z,9.65
2017-12-06T09:57:13.791Z,9.90
2017-12-06T09:58:24.482Z,9.23
2017-12-06T09:59:31.820Z,8.98
2017-12-06T10:00:35.263Z,9.07
2017-12-06T10:01:49.342Z,9.20
2017-12-06T10:02:54.456Z,9.50
2017-12-06T10:04:03.200Z,8.93
2017-12-06T10:05:12.231Z,8.65
2017-12-06T10:06:17.419Z,9.00
2017-12-06T10:07:22.761Z,9.88
2017-12-06T10:08:26.865Z,10.10
2017-12-06T10:09:33.383Z,8.88
2017-12-06T10:10:38.585Z,9.18
2017-12-06T10:11:50.452Z,8.15
2017-12-06T10:12:56.217Z,8.82
2017-12-06T10:14:02.873Z,8.75
2017-12-06T10:15:08.386Z,8.07
2017-12-06T10:16:12.883Z,8.00
2017-12-06T10:17:18.806Z,8.68
2017-12-06T10:18:25.242Z,9.30
2017-12-06T10:19:34.679Z,8.80
2017-12-06T10:20:41.868Z,7.82
2017-12-06T10:21:47.079Z,8.77
2017-12-06T10:22:55.725Z,7.55
2017-12-06T10:24:06.251Z,8.65
2017-12-06T10:25:10.739Z,8.27
2017-12-06T10:26:14.241Z,7.55
2017-12-06T10:27:21.372Z,8.07
2017-12-06T10:28:24.656Z,8.07
2017-12-06T10:29:28.454Z,7.18
2017-12-06T10:30:36.686Z,9.10
2017-12-06T10:31:46.514Z,7.22
2017-12-06T10:32:53.574Z,7.15
2017-12-06T10:34:01.049Z,8.25
2017-12-06T10:35:05.888Z,8.25
2017-12-06T10:36:09.470Z,7.53
2017-12-06T10:37:21.361Z,6.75
2017-12-06T10:38:24.883Z,8.00
2017-12-06T10:39:38.082Z,6.80
2017-12-06T10:40:44.275Z,6.78
2017-12-06T10:41:50.839Z,8.02
2017-12-06T10:42:59.146Z,7.82
2017-12-06T10:44:05.065Z,7.03
2017-12-06T10:45:10.935Z,7.30
2017-12-06T10:49:50.901Z,6.62
2017-12-06T10:52:15.109Z,9.40
2017-12-06T10:53:22.568Z,7.78
2017-12-06T10:55:53.774Z,7.62
2017-12-06T10:56:59.786Z,7.62
2017-12-06T10:58:07.676Z,7.80
2017-12-06T10:59:13.754Z,7.68
2017-12-06T11:00:19.743Z,6.97
2017-12-06T11:01:26.814Z,7.60
2017-12-06T11:02:36.428Z,6.80
2017-12-06T11:03:41.059Z,7.50
2017-12-06T11:04:58.118Z,7.00
2017-12-06T11:07:18.845Z,7.35
2017-12-06T11:08:23.703Z,8.05
2017-12-06T11:09:30.043Z,7.62
2017-12-06T11:10:35.946Z,7.68
2017-12-06T11:11:39.609Z,7.10
2017-12-06T11:13:57.705Z,6.85
2017-12-06T11:15:09.510Z,7.25
2017-12-06T11:16:15.335Z,7.82
2017-12-06T11:17:21.263Z,7.75
2017-12-06T11:18:31.760Z,7.70
2017-12-06T11:19:36.881Z,8.10
2017-12-06T11:20:46.199Z,6.90
2017-12-06T11:21:51.013Z,8.00
2017-12-06T11:23:04.117Z,7.80
2017-12-06T11:24:13.683Z,8.38
2017-12-06T11:25:22.944Z,7.95
2017-12-06T11:26:31.424Z,6.80
2017-12-06T11:27:41.703Z,8.85
2017-12-06T11:28:52.873Z,7.97
2017-12-06T11:29:58.139Z,8.32
2017-12-06T11:31:02.412Z,7.72
2017-12-06T11:32:11.079Z,8.32
2017-12-06T11:34:34.693Z,8.15
2017-12-06T11:35:40.092Z,7.50
2017-12-06T11:36:45.726Z,8.50
2017-12-06T11:37:55.160Z,8.70
2017-12-06T11:39:03.884Z,7.93
2017-12-06T11:40:10.354Z,8.38
2017-12-06T11:41:16.195Z,8.35
2017-12-06T11:42:23.575Z,8.30
2017-12-06T11:43:33.613Z,8.52
2017-12-06T11:44:39.233Z,8.15
2017-12-06T11:45:43.854Z,8.43
2017-12-06T11:46:51.150Z,8.40
2017-12-06T11:47:59.166Z,7.93
2017-12-06T11:49:04.205Z,8.45
2017-12-06T11:51:24.612Z,8.55
2017-12-06T11:52:34.204Z,8.65
2017-12-06T11:53:39.665Z,8.70
2017-12-06T11:54:45.990Z,8.30
2017-12-06T11:55:52.564Z,8.85
2017-12-06T11:57:00.706Z,7.70
2017-12-06T11:58:04.168Z,8.00
2017-12-06T11:59:12.769Z,8.10
2017-12-06T12:00:19.761Z,7.62
2017-12-06T12:01:33.991Z,7.80
2017-12-06T12:02:38.062Z,7.85
2017-12-06T12:03:43.865Z,8.18
2017-12-06T12:04:47.156Z,7.22
2017-12-06T12:05:53.031Z,8.98
2017-12-06T12:07:03.053Z,8.05
2017-12-06T12:08:07.514Z,7.57
2017-12-06T12:09:12.911Z,8.10
2017-12-06T12:10:20.894Z,8.38
2017-12-06T12:11:27.733Z,8.73
2017-12-06T12:12:34.060Z,7.95
2017-12-06T12:13:39.662Z,8.15
2017-12-06T12:14:47.382Z,8.65
2017-12-06T12:15:53.229Z,8.35
2017-12-06T12:17:00.053Z,7.72
2017-12-06T12:19:24.276Z,8.05
2017-12-06T12:20:29.149Z,7.53
2017-12-06T12:21:38.425Z,8.27
2017-12-06T12:22:42.735Z,8.65
2017-12-06T12:23:46.445Z,7.90
2017-12-06T12:24:52.165Z,8.10
2017-12-06T12:25:55.399Z,8.60
2017-12-06T12:27:08.511Z,8.55
2017-12-06T12:28:13.336Z,8.75
2017-12-06T12:29:20.024Z,8.75
2017-12-06T12:30:28.149Z,8.32
2017-12-06T12:31:42.143Z,8.82
2017-12-06T12:34:03.490Z,9.32
2017-12-06T12:35:14.250Z,8.40
2017-12-06T12:36:19.352Z,7.87
2017-12-06T12:37:27.117Z,8.05
2017-12-06T12:38:31.883Z,8.00
2017-12-06T12:39:39.459Z,9.07
2017-12-06T12:40:46.642Z,9.25
2017-12-06T12:42:13.136Z,8.95
2017-12-06T12:43:22.253Z,8.48
2017-12-06T12:44:30.236Z,8.10
2017-12-06T12:45:34.900Z,8.05
2017-12-06T12:46:44.965Z,8.60
2017-12-06T12:47:53.047Z,7.47
2017-12-06T12:49:02.143Z,7.62
2017-12-06T12:50:08.306Z,7.87
2017-12-06T12:52:27.047Z,7.82
2017-12-06T12:53:32.974Z,7.68
2017-12-06T12:54:39.246Z,7.65
2017-12-06T12:57:07.053Z,7.82
2017-12-06T12:58:12.896Z,7.57
2017-12-06T12:59:19.335Z,8.15
2017-12-06T13:00:30.167Z,7.80
2017-12-06T13:02:46.466Z,8.98
2017-12-06T13:03:55.030Z,7.45
2017-12-06T13:05:02.133Z,7.68
2017-12-06T13:06:08.099Z,7.43
2017-12-06T13:07:13.247Z,6.60
2017-12-06T13:08:19.617Z,8.02
2017-12-06T13:09:34.156Z,7.30
2017-12-06T13:10:39.375Z,7.22
2017-12-06T13:11:43.888Z,7.43
2017-12-06T13:12:52.914Z,7.65
2017-12-06T13:13:59.682Z,7.70
2017-12-06T13:15:06.329Z,8.02
2017-12-06T13:16:10.032Z,7.85
2017-12-06T13:17:14.393Z,8.80
2017-12-06T13:18:22.636Z,8.05
2017-12-06T13:19:28.906Z,7.87
2017-12-06T13:20:37.737Z,7.35
2017-12-06T13:21:47.832Z,7.20
2017-12-06T13:22:57.413Z,7.72
2017-12-06T13:24:06.144Z,7.90
2017-12-06T13:25:20.924Z,7.28
2017-12-06T13:27:40.246Z,8.30
2017-12-06T13:28:50.256Z,8.80
2017-12-06T13:29:59.529Z,7.22
2017-12-06T13:31:07.667Z,7.62
2017-12-06T13:32:12.927Z,7.30
2017-12-06T13:33:21.419Z,7.10
2017-12-06T13:34:29.875Z,7.20
2017-12-06T13:35:38.935Z,7.37
2017-12-06T13:36:43.668Z,7.53
2017-12-06T13:37:50.624Z,8.05
2017-12-06T13:39:11.916Z,7.40
2017-12-06T13:40:18.411Z,7.82
2017-12-06T13:41:29.354Z,7.22
2017-12-06T13:42:34.915Z,8.70
2017-12-06T13:43:37.758Z,8.35
2017-12-06T13:44:44.937Z,7.25
2017-12-06T13:45:51.676Z,7.35
2017-12-06T13:47:02.225Z,8.07
2017-12-06T13:48:10.051Z,7.95
2017-12-06T13:49:13.769Z,8.05
2017-12-06T13:50:20.519Z,7.57
2017-12-06T13:51:33.408Z,8.50
2017-12-06T13:52:46.447Z,7.87
2017-12-06T13:53:50.966Z,7.37
2017-12-06T13:55:01.283Z,7.70
2017-12-06T13:56:10.258Z,7.22
2017-12-06T13:57:27.481Z,7.62
2017-12-06T13:58:38.563Z,6.53
2017-12-06T13:59:43.580Z,7.03
2017-12-06T14:00:47.845Z,7.70
2017-12-06T14:01:53.746Z,8.23
2017-12-06T14:02:59.622Z,7.53
2017-12-06T14:04:08.820Z,8.35
2017-12-06T14:05:22.231Z,7.15
2017-12-06T14:06:28.650Z,9.75
2017-12-06T14:08:47.230Z,8.93
2017-12-06T14:09:54.974Z,7.53
2017-12-06T14:10:59.248Z,6.68
2017-12-06T14:12:10.941Z,7.97
2017-12-06T14:13:22.075Z,7.20
2017-12-06T14:14:28.757Z,7.50
2017-12-06T14:15:34.694Z,7.65
2017-12-06T14:16:47.367Z,7.40
2017-12-06T14:17:56.930Z,7.93
2017-12-06T14:19:05.437Z,7.40
2017-12-06T14:20:14.347Z,8.10
2017-12-06T14:21:34.436Z,6.97
2017-12-06T14:22:41.297Z,7.80
2017-12-06T14:23:50.244Z,7.70
2017-12-06T14:24:56.367Z,7.43
2017-12-06T14:26:06.683Z,7.95
2017-12-06T14:28:29.990Z,7.55
2017-12-06T14:29:38.891Z,7.50
2017-12-06T14:30:46.977Z,7.18
2017-12-06T14:31:54.526Z,7.37
2017-12-06T14:33:02.033Z,7.07
2017-12-06T14:34:08.204Z,7.43
2017-12-06T14:35:18.137Z,6.85
2017-12-06T14:36:26.530Z,8.05
2017-12-06T14:37:32.111Z,6.97
2017-12-06T14:38:36.435Z,8.20
2017-12-06T14:39:47.352Z,7.78
2017-12-06T14:40:54.779Z,7.53
2017-12-06T14:42:01.231Z,7.65
2017-12-06T14:45:59.405Z,7.37
2017-12-06T14:47:01.972Z,7.95
2017-12-06T14:48:04.712Z,8.48
2017-12-06T14:49:07.285Z,7.70
2017-12-06T14:50:09.843Z,8.02
2017-12-06T14:51:13.119Z,7.75
2017-12-06T14:52:16.019Z,8.23
2017-12-06T14:53:18.600Z,8.10
2017-12-06T14:54:21.450Z,8.40
2017-12-06T14:55:24.040Z,8.43
2017-12-06T14:56:26.679Z,8.52
2017-12-06T14:57:29.254Z,9.05
2017-12-06T14:58:32.123Z,8.80
2017-12-06T14:59:34.672Z,8.43
2017-12-06T15:00:38.262Z,7.97
2017-12-06T15:01:41.579Z,7.95
2017-12-06T15:02:44.227Z,9.15
2017-12-06T15:03:46.803Z,8.13
2017-12-06T15:04:49.548Z,8.90
2017-12-06T15:05:52.965Z,8.90
2017-12-06T15:06:55.817Z,9.25
2017-12-06T15:07:58.401Z,8.88
2017-12-06T15:09:01.205Z,9.70
2017-12-06T15:10:03.926Z,8.80
2017-12-06T15:11:06.920Z,8.10
2017-12-06T15:12:09.695Z,8.52
2017-12-06T15:13:12.669Z,8.55
2017-12-06T15:14:15.214Z,9.25
2017-12-06T15:15:18.737Z,9.15
2017-12-06T15:16:21.302Z,8.95
2017-12-06T15:17:24.044Z,9.48
2017-12-06T15:18:26.648Z,9.00
2017-12-06T15:19:29.384Z,9.70
2017-12-06T15:20:32.051Z,8.40
2017-12-06T15:21:35.037Z,9.50
2017-12-06T15:22:38.365Z,9.05
2017-12-06T15:23:40.998Z,9.00
2017-12-06T15:24:43.581Z,8.40
2017-12-06T15:25:46.651Z,7.97
2017-12-06T15:26:49.217Z,8.85
2017-12-06T15:27:52.023Z,8.85